Time;durP1;ratioP1;P1;durP2;ratioP2;P2;SDS_P1;SDS_P2;PMS_P1;PMS_P2;Temp;Humidity;BMP_temperature;BMP_pressure;BME280_temperature;BME280_humidity;BME280_pressure;Samples;Min_cycle;Max_cycle;Signal;HPM_P1;HPM_P2
2024/04/04 00:00:15;;;;;;;2.15;1.98;;;;;;;12.67;64.83;94632.53;10416078;28;20040;-82
2024/04/04 00:05:15;;;;;;;3.03;2.83;;;;;;;12.57;68.95;94629.94;10412494;28;20182;-76
2024/04/04 00:10:16;;;;;;;1.00;0.00;;;;;;;12.61;72.76;94629.09;10428300;28;20286;-83
2024/04/04 00:15:16;;;;;;;2.63;0.93;;;;;;;12.29;80.26;94622.44;10427798;28;20518;-83
2024/04/04 00:20:16;;;;;;;0.03;0.00;;;;;;;12.26;81.15;94624.91;10427539;28;20033;-79
2024/04/04 00:25:18;;;;;;;0.47;0.00;;;;;;;12.12;84.81;94627.47;10440768;28;20080;-77
2024/04/04 00:30:19;;;;;;;6.70;0.10;;;;;;;12.07;83.35;94620.25;10425982;28;20031;-78
2024/04/04 00:35:20;;;;;;;1.80;0.00;;;;;;;11.96;87.19;94616.06;10429095;28;20036;-79
2024/04/04 00:40:21;;;;;;;0.10;0.00;;;;;;;11.92;83.93;94621.16;10427991;28;20032;-84
2024/04/04 00:45:21;;;;;;;2.00;1.13;;;;;;;11.86;83.76;94608.03;10427280;28;20031;-79
2024/04/04 00:50:22;;;;;;;0.00;0.00;;;;;;;11.98;82.87;94605.00;10427556;28;20259;-80
2024/04/04 00:55:23;;;;;;;1.42;0.00;;;;;;;12.26;79.43;94611.41;10449465;28;20287;-76
2024/04/04 01:00:24;;;;;;;0.00;0.00;;;;;;;12.04;78.37;94604.66;10431580;28;20037;-81
2024/04/04 01:05:26;;;;;;;0.30;0.00;;;;;;;11.84;79.83;94615.59;10428926;28;20025;-73
2024/04/04 01:10:29;;;;;;;3.00;0.05;;;;;;;12.03;80.15;94616.53;10461402;28;20373;-74
2024/04/04 01:15:29;;;;;;;6.70;1.05;;;;;;;11.74;82.64;94611.91;10435157;28;20096;-71
2024/04/04 01:20:30;;;;;;;0.00;0.00;;;;;;;11.73;84.07;94612.97;10417237;28;20033;-82
2024/04/04 01:25:30;;;;;;;0.00;0.00;;;;;;;11.97;85.41;94614.94;10409631;28;20594;-72
2024/04/04 01:30:40;;;;;;;0.93;0.00;;;;;;;11.96;88.80;94614.16;10438582;28;20116;-77
2024/04/04 01:35:41;;;;;;;5.10;0.05;;;;;;;11.97;87.71;94623.03;10448763;28;20342;-75
2024/04/04 01:40:42;;;;;;;0.57;0.00;;;;;;;11.89;86.69;94623.63;10429786;28;20087;-80
2024/04/04 01:45:43;;;;;;;0.00;0.00;;;;;;;11.81;80.79;94622.34;10439055;28;20279;-74
2024/04/04 01:50:49;;;;;;;1.25;0.00;;;;;;;11.78;81.73;94631.00;10427494;28;20459;-82
2024/04/04 01:55:49;;;;;;;0.03;0.00;;;;;;;11.73;79.79;94637.22;10444938;28;20045;-79
2024/04/04 02:00:50;;;;;;;0.73;0.00;;;;;;;11.75;80.49;94647.72;10427211;28;20020;-75
2024/04/04 02:05:50;;;;;;;4.03;0.03;;;;;;;11.78;80.46;94644.47;10426848;28;20267;-82
2024/04/04 02:10:50;;;;;;;0.17;0.00;;;;;;;11.82;81.44;94639.31;10383475;28;20428;-80
2024/04/04 02:15:51;;;;;;;0.03;0.00;;;;;;;11.65;83.71;94635.13;10419685;28;20411;-81
2024/04/04 02:20:52;;;;;;;3.50;0.00;;;;;;;11.49;76.51;94642.53;10426221;28;20410;-75
2024/04/04 02:25:52;;;;;;;2.08;0.05;;;;;;;11.41;81.20;94637.75;10446743;28;20056;-80
2024/04/04 02:30:53;;;;;;;0.10;0.00;;;;;;;11.22;84.78;94637.59;10441301;28;20036;-84
2024/04/04 02:35:54;;;;;;;1.50;0.13;;;;;;;11.21;84.50;94641.41;10406439;28;20128;-75
2024/04/04 02:40:55;;;;;;;8.10;0.10;;;;;;;11.18;83.83;94641.97;10450144;28;20033;-82
2024/04/04 02:46:00;;;;;;;0.00;0.00;;;;;;;11.31;87.03;94641.31;10424896;28;20029;-81
2024/04/04 02:51:00;;;;;;;5.93;0.00;;;;;;;11.16;86.45;94638.72;10424731;28;20056;-78
2024/04/04 02:56:00;;;;;;;1.03;0.00;;;;;;;11.20;82.55;94637.88;10430301;28;20108;-77
2024/04/04 03:01:07;;;;;;;2.00;1.07;;;;;;;11.10;84.06;94646.81;10436762;28;20272;-81
2024/04/04 03:06:07;;;;;;;1.85;1.00;;;;;;;11.08;88.68;94638.25;10415321;28;20665;-84
2024/04/04 03:11:13;;;;;;;1.02;0.00;;;;;;;11.00;92.22;94638.03;10432034;28;20028;-86
2024/04/04 03:16:13;;;;;;;1.65;1.00;;;;;;;10.90;87.69;94636.22;10443117;28;20064;-78
2024/04/04 03:21:14;;;;;;;2.10;1.60;;;;;;;10.93;86.11;94633.75;10440425;28;20447;-79
2024/04/04 03:26:14;;;;;;;0.00;0.00;;;;;;;10.82;86.09;94634.88;10405989;28;20177;-86
2024/04/04 03:31:16;;;;;;;4.03;0.10;;;;;;;10.98;93.30;94638.31;10439389;28;20037;-80
2024/04/04 03:36:18;;;;;;;1.45;0.00;;;;;;;11.05;82.41;94637.97;10423048;28;20061;-73
2024/04/04 03:41:19;;;;;;;1.92;0.00;;;;;;;11.10;74.35;94635.28;10445042;28;20036;-81
2024/04/04 03:46:20;;;;;;;1.20;0.00;;;;;;;10.99;74.78;94634.53;10442450;28;20223;-82
2024/04/04 03:51:20;;;;;;;10.32;0.17;;;;;;;10.94;74.05;94638.06;10427228;28;20021;-82
2024/04/04 03:56:22;;;;;;;1.38;0.00;;;;;;;10.89;75.55;94634.59;10450007;28;20048;-81
2024/04/04 04:01:23;;;;;;;0.88;0.00;;;;;;;10.95;74.59;94638.84;10428596;28;20119;-80
2024/04/04 04:06:23;;;;;;;0.25;0.00;;;;;;;10.91;79.38;94640.47;10427494;28;20029;-82
2024/04/04 04:11:24;;;;;;;0.50;0.00;;;;;;;11.06;81.16;94644.97;10429750;28;20403;-76
2024/04/04 04:16:24;;;;;;;7.55;0.10;;;;;;;11.10;77.26;94646.03;10426624;28;20036;-79
2024/04/04 04:21:24;;;;;;;2.20;1.60;;;;;;;11.07;79.95;94646.59;10426237;28;20025;-77
2024/04/04 04:26:25;;;;;;;0.10;0.00;;;;;;;11.03;79.57;94653.59;10426859;28;20693;-76
2024/04/04 04:31:33;;;;;;;0.20;0.00;;;;;;;11.08;76.74;94667.03;10426477;28;20275;-79
2024/04/04 04:36:37;;;;;;;0.17;0.00;;;;;;;11.16;81.82;94665.63;10428909;28;20725;-80
2024/04/04 04:41:37;;;;;;;0.00;0.00;;;;;;;11.29;81.32;94654.25;10425840;28;20114;-78
2024/04/04 04:46:37;;;;;;;0.05;0.00;;;;;;;11.41;82.13;94653.91;10408946;28;20056;-81
2024/04/04 04:51:40;;;;;;;2.67;0.00;;;;;;;11.49;79.67;94665.97;10426469;28;20466;-74
2024/04/04 04:56:40;;;;;;;3.92;0.10;;;;;;;11.51;84.24;94674.53;10427034;28;20047;-77
2024/04/04 05:01:42;;;;;;;14.90;0.20;;;;;;;11.62;89.07;94684.16;10425629;28;20023;-80
2024/04/04 05:06:46;;;;;;;4.47;0.10;;;;;;;11.65;84.98;94688.97;10428732;28;20021;-80
2024/04/04 05:11:47;;;;;;;2.80;0.10;;;;;;;11.97;81.30;94690.34;10429862;28;20553;-83
2024/04/04 05:16:49;;;;;;;1.55;0.00;;;;;;;12.24;83.40;94680.97;10425441;28;20551;-79
2024/04/04 05:21:52;;;;;;;0.10;0.00;;;;;;;12.35;84.10;94703.22;10442909;28;20029;-80
2024/04/04 05:26:52;;;;;;;0.05;0.05;;;;;;;12.56;79.94;94699.22;10423087;28;20041;-82
2024/04/04 05:31:52;;;;;;;10.80;9.73;;;;;;;12.77;76.43;94709.81;10411462;28;20247;-75
2024/04/04 05:36:55;;;;;;;13.05;11.65;;;;;;;12.70;74.67;94712.84;10423653;28;20298;-81
2024/04/04 05:41:58;;;;;;;12.75;8.50;;;;;;;12.68;69.28;94714.22;10427543;28;20029;-84
2024/04/04 05:46:58;;;;;;;2.25;1.67;;;;;;;12.59;69.79;94712.13;10419228;28;20376;-82
2024/04/04 05:51:59;;;;;;;0.73;0.57;;;;;;;13.15;65.20;94721.44;10387951;28;20500;-79
2024/04/04 05:57:01;;;;;;;3.83;0.10;;;;;;;14.08;58.47;94712.06;10433741;28;20052;-87
2024/04/04 06:02:01;;;;;;;1.30;0.00;;;;;;;14.46;56.30;94711.94;10422631;28;20033;-76
2024/04/04 06:07:02;;;;;;;1.63;0.00;;;;;;;14.57;56.42;94707.16;10423232;28;20580;-75
2024/04/04 06:12:03;;;;;;;6.47;0.10;;;;;;;14.83;57.29;94704.78;10440982;28;20778;-83
2024/04/04 06:17:04;;;;;;;0.43;0.00;;;;;;;15.57;53.45;94715.72;10423633;28;20041;-80
2024/04/04 06:22:04;;;;;;;3.28;0.10;;;;;;;16.82;49.92;94710.50;10406722;28;20511;-79
2024/04/04 06:27:06;;;;;;;1.25;0.00;;;;;;;16.60;49.09;94716.78;10431598;28;20045;-82
2024/04/04 06:32:06;;;;;;;1.83;0.00;;;;;;;16.54;50.66;94726.97;10423407;28;20024;-82
2024/04/04 06:37:07;;;;;;;2.83;0.08;;;;;;;16.13;54.71;94728.00;10423457;28;20415;-78
2024/04/04 06:42:07;;;;;;;13.82;0.10;;;;;;;16.07;54.51;94729.22;10440238;28;20029;-77
2024/04/04 06:47:08;;;;;;;9.03;0.10;;;;;;;17.58;48.50;94730.38;10421097;28;20021;-82
2024/04/04 06:52:08;;;;;;;7.20;0.22;;;;;;;18.40;44.29;94727.03;10420795;28;20025;-75
2024/04/04 06:57:10;;;;;;;8.67;0.10;;;;;;;19.62;41.39;94721.09;10406085;28;20502;-78
2024/04/04 07:02:10;;;;;;;1.42;0.05;;;;;;;20.70;39.72;94718.78;10439505;28;20530;-78
2024/04/04 07:07:11;;;;;;;14.17;0.10;;;;;;;20.51;39.57;94723.94;10403528;28;20100;-83
2024/04/04 07:12:11;;;;;;;0.77;0.00;;;;;;;21.76;36.53;94718.25;10421266;28;20331;-76
2024/04/04 07:17:12;;;;;;;0.73;0.08;;;;;;;23.43;33.37;94708.63;10438319;28;20045;-78
2024/04/04 07:22:12;;;;;;;11.05;0.10;;;;;;;24.87;31.76;94705.34;10421491;28;20025;-83
2024/04/04 07:27:13;;;;;;;0.87;0.00;;;;;;;25.10;30.24;94704.53;10447191;28;20124;-76
2024/04/04 07:32:14;;;;;;;0.90;0.00;;;;;;;24.94;29.62;94699.16;10411758;28;20284;-76
2024/04/04 07:37:14;;;;;;;7.68;0.10;;;;;;;26.22;26.27;94693.22;10428719;28;20526;-77
2024/04/04 07:42:15;;;;;;;5.53;0.07;;;;;;;27.02;25.21;94695.66;10427546;28;20028;-76
2024/04/04 07:47:16;;;;;;;3.67;0.00;;;;;;;28.17;23.03;94705.97;10445847;28;20025;-74
2024/04/04 07:52:16;;;;;;;0.30;0.00;;;;;;;28.41;22.51;94691.47;10432113;28;20352;-84
2024/04/04 07:57:18;;;;;;;2.50;0.00;;;;;;;29.57;22.92;94686.13;10432694;28;20087;-76
2024/04/04 08:02:19;;;;;;;2.13;0.00;;;;;;;29.42;21.66;94677.84;10427238;28;20087;-78
2024/04/04 08:07:22;;;;;;;1.25;0.00;;;;;;;30.38;21.38;94686.34;10431154;28;20027;-78
2024/04/04 08:12:39;;;;;;;2.10;0.00;;;;;;;30.11;21.97;94680.50;10448324;28;20028;-81
2024/04/04 08:17:42;;;;;;;0.50;0.00;;;;;;;30.46;21.81;94678.78;10443769;28;20443;-76
2024/04/04 08:22:46;;;;;;;3.30;0.00;;;;;;;30.09;21.88;94680.13;10444332;28;20051;-80
2024/04/04 08:27:46;;;;;;;0.40;0.00;;;;;;;29.88;22.24;94672.66;10427353;28;20125;-76
2024/04/04 08:32:47;;;;;;;8.27;0.10;;;;;;;29.31;23.26;94683.38;10431513;28;20021;-77
2024/04/04 08:37:48;;;;;;;4.30;0.00;;;;;;;30.17;22.77;94676.91;10454405;28;20039;-74
2024/04/04 08:42:48;;;;;;;0.32;0.00;;;;;;;30.21;23.34;94678.88;10457333;28;20048;-76
2024/04/04 08:47:54;;;;;;;5.10;0.10;;;;;;;30.53;22.15;94680.75;10450549;28;20083;-79
2024/04/04 08:52:56;;;;;;;6.15;1.10;;;;;;;29.36;22.43;94679.44;10450014;28;20037;-77
2024/04/04 08:57:58;;;;;;;5.53;1.42;;;;;;;27.09;25.80;94673.66;10430241;28;20095;-78
2024/04/04 09:02:59;;;;;;;6.90;0.22;;;;;;;25.58;28.07;94678.19;10447041;28;20316;-82
2024/04/04 09:08:05;;;;;;;12.10;0.10;;;;;;;24.82;28.01;94678.91;10444983;28;20091;-79
2024/04/04 09:13:07;;;;;;;4.13;0.00;;;;;;;26.62;26.92;94664.13;10408202;28;20077;-75
2024/04/04 09:18:11;;;;;;;5.13;0.45;;;;;;;26.89;26.66;94664.00;10427868;28;20028;-80
2024/04/04 09:23:19;;;;;;;2.50;2.22;;;;;;;25.20;28.41;94665.41;10425442;28;20478;-79
2024/04/04 09:28:22;;;;;;;7.13;3.70;;;;;;;23.51;29.00;94676.66;10443747;28;20567;-80
2024/04/04 09:33:24;;;;;;;11.93;8.43;;;;;;;23.21;30.00;94671.69;10427358;28;20052;-82
2024/04/04 09:38:26;;;;;;;8.07;2.83;;;;;;;23.91;30.44;94661.09;10407538;28;20048;-80
2024/04/04 09:43:28;;;;;;;12.98;11.18;;;;;;;24.42;30.41;94662.84;10425585;28;20071;-83
2024/04/04 09:48:30;;;;;;;33.13;19.42;;;;;;;23.61;30.01;94647.88;10425908;28;20343;-79
2024/04/04 09:53:31;;;;;;;17.98;15.25;;;;;;;23.97;30.06;94652.19;10425918;28;20033;-76
2024/04/04 09:58:33;;;;;;;10.60;7.82;;;;;;;23.97;29.91;94662.38;10409177;28;20082;-82
2024/04/04 10:03:36;;;;;;;6.53;1.23;;;;;;;24.98;30.47;94662.31;10425042;28;20124;-74
2024/04/04 10:08:36;;;;;;;9.73;7.82;;;;;;;27.90;25.65;94648.19;10423753;28;20028;-77
2024/04/04 10:13:36;;;;;;;3.08;1.83;;;;;;;30.15;23.77;94634.16;10443414;28;20029;-74
2024/04/04 10:18:47;;;;;;;2.83;0.47;;;;;;;31.94;21.07;94642.38;10440671;28;20029;-76
2024/04/04 10:23:51;;;;;;;0.88;0.10;;;;;;;32.73;20.69;94635.06;10415493;28;20048;-77
2024/04/04 10:28:52;;;;;;;0.88;0.32;;;;;;;34.09;19.67;94631.19;10394210;28;20038;-80
2024/04/04 10:34:03;;;;;;;2.83;0.10;;;;;;;34.20;19.42;94634.56;10372739;28;20439;-87
2024/04/04 10:39:09;;;;;;;0.98;0.00;;;;;;;34.19;19.55;94630.22;10381219;28;20119;-81
2024/04/04 10:44:11;;;;;;;0.00;0.00;;;;;;;34.20;19.01;94637.38;10381344;28;20061;-76
2024/04/04 10:49:16;;;;;;;2.17;0.00;;;;;;;33.40;19.63;94645.59;10401713;28;20033;-82
2024/04/04 10:54:17;;;;;;;2.20;0.00;;;;;;;34.68;18.41;94623.22;10386992;28;20036;-76
2024/04/04 10:59:19;;;;;;;1.95;0.00;;;;;;;35.37;18.04;94642.00;10394098;28;20403;-81
2024/04/04 11:04:19;;;;;;;1.75;0.00;;;;;;;33.90;18.86;94633.56;10385072;28;20095;-78
2024/04/04 11:09:20;;;;;;;0.13;0.00;;;;;;;32.37;18.98;94641.09;10391104;28;20558;-76
2024/04/04 11:14:22;;;;;;;4.25;0.00;;;;;;;29.01;22.81;94639.47;10407151;28;20045;-76
2024/04/04 11:19:24;;;;;;;1.63;0.00;;;;;;;29.18;22.21;94634.31;10395302;28;20061;-83
2024/04/04 11:24:28;;;;;;;3.20;0.03;;;;;;;29.42;22.92;94630.75;10391480;28;20067;-76
2024/04/04 11:29:29;;;;;;;0.82;0.00;;;;;;;24.73;27.07;94640.69;10431159;28;20529;-81
2024/04/04 11:34:29;;;;;;;13.77;0.10;;;;;;;24.27;27.71;94640.63;10430185;28;20039;-73
2024/04/04 11:39:30;;;;;;;4.80;0.10;;;;;;;23.37;28.28;94642.28;10431634;28;20087;-81
2024/04/04 11:44:30;;;;;;;0.03;0.03;;;;;;;23.35;29.58;94646.53;10425113;28;20083;-77
2024/04/04 11:49:30;;;;;;;4.30;0.68;;;;;;;22.41;31.28;94638.78;10413827;28;20649;-78
2024/04/04 11:54:31;;;;;;;7.18;5.15;;;;;;;22.85;31.28;94640.63;10446443;28;20028;-81
2024/04/04 11:59:32;;;;;;;4.85;4.40;;;;;;;22.04;31.95;94635.41;10429899;28;20025;-77
2024/04/04 12:04:40;;;;;;;8.20;5.67;;;;;;;20.88;31.15;94642.88;10416228;28;20452;-76
2024/04/04 12:09:40;;;;;;;8.32;2.83;;;;;;;21.19;31.74;94638.78;10427115;28;20326;-76
2024/04/04 12:14:43;;;;;;;4.88;4.47;;;;;;;21.65;31.87;94638.59;10427715;28;20119;-77
2024/04/04 12:19:44;;;;;;;13.35;10.25;;;;;;;21.69;30.10;94644.97;10455667;28;20179;-81
2024/04/04 12:24:44;;;;;;;24.15;18.40;;;;;;;21.13;29.37;94632.75;10428286;28;20107;-80
2024/04/04 12:29:44;;;;;;;14.60;12.93;;;;;;;21.30;30.62;94631.69;10427268;28;20044;-77
2024/04/04 12:34:45;;;;;;;10.77;9.70;;;;;;;21.61;29.71;94640.44;10428001;28;20291;-74
2024/04/04 12:39:45;;;;;;;14.27;12.73;;;;;;;21.72;30.10;94644.28;10427121;28;20043;-79
2024/04/04 12:44:46;;;;;;;13.07;11.77;;;;;;;21.36;29.65;94628.72;10432129;28;20345;-82
2024/04/04 12:49:46;;;;;;;8.80;7.97;;;;;;;21.29;28.70;94638.31;10426185;28;20287;-79
2024/04/04 12:54:48;;;;;;;5.43;5.07;;;;;;;21.42;29.21;94649.22;10445070;28;20033;-81
2024/04/04 12:59:48;;;;;;;13.00;11.80;;;;;;;20.68;29.45;94635.59;10427834;28;20288;-76
2024/04/04 13:04:49;;;;;;;9.87;7.77;;;;;;;20.95;29.96;94645.84;10427064;28;20028;-79
2024/04/04 13:09:49;;;;;;;8.40;6.23;;;;;;;21.07;29.23;94633.31;10445711;28;20260;-77
2024/04/04 13:14:50;;;;;;;9.20;4.17;;;;;;;21.38;28.59;94635.44;10426519;28;20271;-77
2024/04/04 13:19:50;;;;;;;3.38;1.42;;;;;;;21.05;29.89;94641.84;10425645;28;20033;-82
2024/04/04 13:24:51;;;;;;;0.73;0.73;;;;;;;21.17;29.87;94636.38;10443813;28;20439;-79
2024/04/04 13:29:51;;;;;;;0.10;0.10;;;;;;;20.82;30.03;94642.31;10434597;28;20028;-76
2024/04/04 13:34:52;;;;;;;1.73;0.20;;;;;;;20.43;31.83;94644.50;10436591;28;20037;-76
2024/04/04 13:39:54;;;;;;;2.97;2.63;;;;;;;21.06;29.94;94642.66;10433951;28;20041;-78
2024/04/04 13:44:55;;;;;;;0.45;0.45;;;;;;;21.29;29.55;94652.00;10448002;28;20028;-78
2024/04/04 13:49:55;;;;;;;2.25;0.40;;;;;;;21.50;29.36;94653.75;10425678;28;20037;-78
2024/04/04 13:54:59;;;;;;;0.67;0.20;;;;;;;21.74;30.60;94642.00;10423480;28;20050;-82
2024/04/04 14:00:04;;;;;;;3.50;0.20;;;;;;;21.74;29.91;94646.66;10409012;28;20299;-77
2024/04/04 14:05:05;;;;;;;1.67;0.30;;;;;;;21.68;28.52;94651.56;10441379;28;20055;-74
2024/04/04 14:10:07;;;;;;;5.38;0.20;;;;;;;21.82;27.63;94656.66;10422989;28;20406;-77
2024/04/04 14:15:09;;;;;;;4.30;0.05;;;;;;;21.34;28.87;94648.22;10444015;28;20029;-83
2024/04/04 14:20:10;;;;;;;0.28;0.00;;;;;;;21.20;29.47;94653.25;10424279;28;20060;-81
2024/04/04 14:25:11;;;;;;;0.10;0.00;;;;;;;20.83;29.43;94656.75;10422569;28;20115;-80
2024/04/04 14:30:11;;;;;;;0.32;0.00;;;;;;;20.82;29.78;94671.56;10425734;28;20036;-80
2024/04/04 14:35:11;;;;;;;0.08;0.00;;;;;;;20.41;30.61;94681.47;10398687;28;20054;-80
2024/04/04 14:40:12;;;;;;;0.53;0.00;;;;;;;20.09;30.62;94689.31;10392820;28;20033;-82
2024/04/04 14:45:12;;;;;;;0.17;0.00;;;;;;;20.17;30.73;94693.91;10425325;28;20708;-81
2024/04/04 14:50:14;;;;;;;0.73;0.10;;;;;;;20.11;31.32;94690.59;10421669;28;20383;-77
2024/04/04 14:55:14;;;;;;;4.90;0.43;;;;;;;20.08;31.43;94687.72;10385351;28;20793;-79
2024/04/04 15:00:16;;;;;;;3.27;2.43;;;;;;;19.89;33.54;94691.72;10439509;28;20029;-81
2024/04/04 15:05:16;;;;;;;10.85;5.57;;;;;;;19.96;32.73;94691.19;10422449;28;20275;-81
2024/04/04 15:10:17;;;;;;;2.17;2.08;;;;;;;19.77;33.55;94694.38;10441324;28;20017;-84
2024/04/04 15:15:17;;;;;;;3.35;3.17;;;;;;;19.63;33.23;94700.06;10423711;28;20032;-82
2024/04/04 15:20:19;;;;;;;22.17;16.40;;;;;;;19.50;34.00;94699.22;10422670;28;20095;-77
2024/04/04 15:25:20;;;;;;;6.80;5.50;;;;;;;19.27;33.90;94707.69;10421417;28;20295;-77
2024/04/04 15:30:20;;;;;;;12.17;10.93;;;;;;;19.16;34.29;94711.91;10421975;28;20503;-78
2024/04/04 15:35:21;;;;;;;26.13;18.80;;;;;;;19.14;34.41;94714.16;10421495;28;20029;-79
2024/04/04 15:40:21;;;;;;;33.92;17.67;;;;;;;18.83;35.28;94717.16;10423826;28;20048;-80
2024/04/04 15:45:23;;;;;;;16.90;13.00;;;;;;;18.70;36.15;94729.84;10424928;28;20075;-80
2024/04/04 15:50:23;;;;;;;19.67;15.63;;;;;;;18.43;35.43;94724.47;10428522;28;20040;-79
2024/04/04 15:55:24;;;;;;;18.98;13.45;;;;;;;18.55;35.02;94737.41;10438293;28;20044;-75
2024/04/04 16:00:24;;;;;;;38.95;22.05;;;;;;;18.66;35.92;94742.53;10453240;28;20029;-77
2024/04/04 16:05:24;;;;;;;24.38;16.15;;;;;;;18.51;36.68;94749.28;10438986;28;20123;-83
2024/04/04 16:10:25;;;;;;;59.50;24.63;;;;;;;18.39;36.31;94756.19;10429726;28;20114;-80
2024/04/04 16:15:26;;;;;;;41.57;21.47;;;;;;;18.31;37.12;94756.16;10432187;28;20036;-78
2024/04/04 16:20:26;;;;;;;95.70;31.52;;;;;;;18.16;36.91;94771.88;10429730;28;20330;-77
2024/04/04 16:25:27;;;;;;;59.30;25.23;;;;;;;18.27;37.01;94772.34;10426854;28;20045;-82
2024/04/04 16:30:27;;;;;;;49.17;24.13;;;;;;;18.13;38.04;94775.22;10426508;28;20314;-77
2024/04/04 16:35:27;;;;;;;51.03;25.90;;;;;;;18.04;37.03;94782.56;10428357;28;20056;-80
2024/04/04 16:40:29;;;;;;;55.85;26.83;;;;;;;18.08;37.06;94780.81;10426222;28;20283;-79
2024/04/04 16:45:29;;;;;;;67.30;28.75;;;;;;;18.03;37.22;94791.84;10426905;28;20123;-80
2024/04/04 16:50:31;;;;;;;39.33;23.00;;;;;;;17.72;37.09;94798.19;10426060;28;20047;-77
2024/04/04 16:55:31;;;;;;;38.60;21.98;;;;;;;17.70;37.73;94805.88;10425292;28;20364;-82
2024/04/04 17:00:32;;;;;;;38.97;22.35;;;;;;;17.59;38.12;94810.78;10444874;28;20020;-78
2024/04/04 17:05:35;;;;;;;27.58;16.92;;;;;;;17.53;37.98;94812.84;10427193;28;20025;-80
2024/04/04 17:10:36;;;;;;;28.05;18.65;;;;;;;17.37;38.49;94815.22;10434997;28;20403;-79
2024/04/04 17:15:37;;;;;;;11.68;10.60;;;;;;;17.17;38.82;94815.75;10427389;28;20024;-81
2024/04/04 17:20:38;;;;;;;16.15;13.60;;;;;;;17.03;39.81;94824.00;10428595;28;20931;-75
2024/04/04 17:25:39;;;;;;;8.73;7.95;;;;;;;17.01;39.79;94821.59;10439127;28;20052;-76
2024/04/04 17:30:39;;;;;;;9.80;6.65;;;;;;;16.85;40.63;94837.44;10414653;28;20033;-80
2024/04/04 17:35:40;;;;;;;12.97;7.90;;;;;;;16.76;41.49;94847.47;10424167;28;20047;-77
2024/04/04 17:40:40;;;;;;;14.10;12.70;;;;;;;16.33;41.90;94851.44;10422700;28;20291;-75
2024/04/04 17:45:41;;;;;;;18.67;15.50;;;;;;;15.89;43.11;94863.78;10423500;28;20024;-78
2024/04/04 17:50:41;;;;;;;8.65;7.93;;;;;;;15.80;44.68;94873.78;10440849;28;20268;-76
2024/04/04 17:55:41;;;;;;;11.40;10.30;;;;;;;15.73;44.89;94884.97;10422314;28;20451;-75
2024/04/04 18:00:42;;;;;;;22.87;16.87;;;;;;;15.47;46.27;94890.88;10423427;28;20275;-79
2024/04/04 18:05:42;;;;;;;17.77;14.60;;;;;;;15.63;45.62;94898.72;10422261;28;20350;-78
2024/04/04 18:10:45;;;;;;;28.60;18.90;;;;;;;15.64;46.57;94900.31;10424708;28;20016;-77
2024/04/04 18:15:46;;;;;;;22.85;17.58;;;;;;;15.61;46.45;94911.75;10441189;28;20541;-80
2024/04/04 18:20:47;;;;;;;15.48;11.32;;;;;;;15.64;46.78;94919.28;10417502;28;20161;-78
2024/04/04 18:25:47;;;;;;;14.52;13.10;;;;;;;15.63;46.46;94926.63;10421431;28;20067;-74
2024/04/04 18:30:49;;;;;;;13.07;11.88;;;;;;;15.58;46.52;94934.03;10421178;28;20021;-74
2024/04/04 18:35:50;;;;;;;11.30;10.30;;;;;;;15.45;47.11;94938.34;10416029;28;20043;-77
2024/04/04 18:40:51;;;;;;;7.40;5.15;;;;;;;15.40;47.25;94936.50;10421597;28;20120;-74
2024/04/04 18:45:51;;;;;;;2.38;1.52;;;;;;;15.30;47.75;94942.13;10421343;28;20078;-79
2024/04/04 18:50:53;;;;;;;9.90;3.57;;;;;;;15.14;47.56;94950.50;10422039;28;20079;-76
2024/04/04 18:55:57;;;;;;;8.45;7.75;;;;;;;15.18;48.59;94948.81;10440229;28;20294;-75
2024/04/04 19:00:59;;;;;;;6.75;4.25;;;;;;;15.11;50.58;94944.88;10421150;28;20044;-75
2024/04/04 19:05:59;;;;;;;1.75;1.65;;;;;;;15.05;51.02;94949.56;10421010;28;20025;-73
2024/04/04 19:11:00;;;;;;;5.45;4.03;;;;;;;14.97;51.24;94958.38;10421176;28;20036;-76
2024/04/04 19:16:02;;;;;;;3.28;2.90;;;;;;;14.92;51.22;94950.34;10421329;28;20067;-74
2024/04/04 19:21:04;;;;;;;15.35;12.32;;;;;;;14.88;51.46;94960.94;10443845;28;20055;-76
2024/04/04 19:26:16;;;;;;;9.98;8.93;;;;;;;14.88;54.68;94970.97;10428356;28;20060;-80
2024/04/04 19:31:18;;;;;;;15.10;12.20;;;;;;;14.76;52.90;94969.50;10445836;28;20021;-77
2024/04/04 19:36:18;;;;;;;19.63;15.57;;;;;;;14.70;53.54;94963.38;10428281;28;20024;-76
2024/04/04 19:41:19;;;;;;;31.63;18.77;;;;;;;14.44;54.99;94968.34;10428804;28;20126;-77
2024/04/04 19:46:19;;;;;;;50.70;24.73;;;;;;;14.47;58.59;94969.63;10427440;28;20024;-75
2024/04/04 19:51:20;;;;;;;63.45;26.85;;;;;;;14.26;55.76;94972.63;10427765;28;20263;-80
2024/04/04 19:56:20;;;;;;;63.45;26.67;;;;;;;14.25;57.53;94973.72;10427618;28;20033;-74
2024/04/04 20:01:21;;;;;;;59.42;26.33;;;;;;;14.14;60.03;94989.25;10427358;28;20028;-77
2024/04/04 20:06:21;;;;;;;66.35;25.60;;;;;;;13.85;59.90;94994.72;10427177;28;20052;-77
2024/04/04 20:11:21;;;;;;;52.47;24.73;;;;;;;13.74;59.17;94985.13;10427481;28;20021;-82
2024/04/04 20:16:22;;;;;;;39.78;21.98;;;;;;;13.79;59.98;94990.47;10427224;28;20581;-78
2024/04/04 20:21:23;;;;;;;28.88;18.60;;;;;;;13.70;60.49;94987.56;10425344;28;20025;-76
2024/04/04 20:26:24;;;;;;;48.00;21.85;;;;;;;13.78;65.10;94991.56;10436716;23;20060;-74
2024/04/04 20:31:25;;;;;;;37.22;20.42;;;;;;;13.74;61.89;94999.41;10451066;28;20025;-74
2024/04/04 20:36:25;;;;;;;40.45;22.05;;;;;;;13.75;71.28;95002.94;10462101;28;20414;-75
2024/04/04 20:41:26;;;;;;;29.30;18.63;;;;;;;13.57;70.38;95004.47;10463173;28;20025;-75
2024/04/04 20:46:26;;;;;;;16.80;14.90;;;;;;;13.47;73.30;95008.88;10463250;28;20279;-76
2024/04/04 20:51:26;;;;;;;10.30;8.87;;;;;;;13.39;74.01;95014.09;10431010;28;20063;-75
2024/04/04 20:56:27;;;;;;;5.15;2.78;;;;;;;13.34;77.53;95006.81;10462631;28;20290;-74
2024/04/04 21:01:27;;;;;;;1.48;1.40;;;;;;;13.19;77.20;95007.75;10444580;28;20024;-75
2024/04/04 21:06:28;;;;;;;6.93;0.70;;;;;;;12.82;80.03;95012.63;10443384;28;20495;-76
2024/04/04 21:11:30;;;;;;;0.00;0.00;;;;;;;12.91;82.82;95017.41;10444983;28;20788;-76
2024/04/04 21:16:30;;;;;;;4.53;1.85;;;;;;;12.80;83.86;95025.56;10462894;28;20035;-74
2024/04/04 21:21:34;;;;;;;1.60;1.50;;;;;;;12.87;83.42;95016.38;10461979;28;20028;-74
2024/04/04 21:26:35;;;;;;;11.80;7.30;;;;;;;12.85;81.12;95023.91;10444868;28;20418;-75
2024/04/04 21:31:37;;;;;;;12.02;10.00;;;;;;;12.85;72.82;95019.34;10462750;28;20495;-75
2024/04/04 21:36:37;;;;;;;1.75;1.65;;;;;;;12.86;70.78;95018.25;10461480;28;20032;-75
2024/04/04 21:41:38;;;;;;;10.43;0.43;;;;;;;12.81;73.29;95027.19;10461947;28;20028;-76
2024/04/04 21:46:38;;;;;;;4.87;4.47;;;;;;;12.78;75.42;95026.94;10443743;28;20513;-77
2024/04/04 21:51:38;;;;;;;6.65;6.10;;;;;;;12.62;74.46;95037.00;10461397;28;20259;-76
2024/04/04 21:56:39;;;;;;;5.68;4.20;;;;;;;12.62;75.04;95028.91;10443679;28;20028;-76
2024/04/04 22:01:40;;;;;;;9.07;6.57;;;;;;;12.56;75.13;95046.19;10461881;28;20088;-76
2024/04/04 22:06:40;;;;;;;1.50;1.50;;;;;;;12.43;74.87;95053.81;10442620;28;20115;-76
2024/04/04 22:11:41;;;;;;;0.63;0.50;;;;;;;12.35;77.55;95051.72;10461134;28;20043;-76
2024/04/04 22:16:41;;;;;;;0.60;0.60;;;;;;;12.04;79.25;95046.44;10461072;28;20446;-75
2024/04/04 22:21:42;;;;;;;2.20;0.50;;;;;;;11.80;81.57;95054.25;10460760;28;20066;-76
2024/04/04 22:26:43;;;;;;;0.85;0.25;;;;;;;11.70;83.68;95049.69;10460243;28;20522;-76
2024/04/04 22:31:46;;;;;;;1.52;1.42;;;;;;;11.61;84.82;95048.66;10461159;28;20094;-77
2024/04/04 22:36:47;;;;;;;2.80;0.43;;;;;;;11.48;86.79;95049.19;10460080;28;20020;-77
2024/04/04 22:41:47;;;;;;;2.10;0.30;;;;;;;11.43;87.44;95042.75;10461124;28;20400;-76
2024/04/04 22:46:47;;;;;;;1.20;0.30;;;;;;;11.42;87.55;95051.09;10442640;28;20289;-76
2024/04/04 22:51:47;;;;;;;0.43;0.43;;;;;;;11.44;89.15;95048.94;10442722;28;20289;-77
2024/04/04 22:56:48;;;;;;;0.80;0.55;;;;;;;11.41;87.64;95054.84;10467631;28;20792;-77
2024/04/04 23:01:48;;;;;;;2.80;0.10;;;;;;;11.39;90.75;95047.06;10468711;28;20356;-76
2024/04/04 23:06:49;;;;;;;1.75;0.08;;;;;;;11.44;92.08;95054.31;10467767;28;20385;-76
2024/04/04 23:11:49;;;;;;;0.08;0.00;;;;;;;11.46;93.23;95044.91;10449494;28;20072;-76